createdAt,value
2023-05-21T00:01:08.039Z,97131.22
2023-05-21T00:03:36.560Z,97132.38
2023-05-21T00:06:04.222Z,97146.16
2023-05-21T00:08:31.297Z,97136.66
2023-05-21T00:10:58.099Z,97130.31
2023-05-21T00:13:24.906Z,97108.59
2023-05-21T00:15:52.021Z,97115.66
2023-05-21T00:18:18.941Z,97109.94
2023-05-21T00:20:45.963Z,97100.88
2023-05-21T00:23:12.937Z,97087.97
2023-05-21T00:25:39.757Z,97071.56
2023-05-21T00:28:06.795Z,97061.50
2023-05-21T00:30:33.563Z,97062.59
2023-05-21T00:33:03.080Z,97056.28
2023-05-21T00:35:30.128Z,97059.16
2023-05-21T00:37:57.486Z,97053.34
2023-05-21T00:40:24.385Z,97051.81
2023-05-21T00:42:51.230Z,97050.72
2023-05-21T00:45:18.028Z,97056.97
2023-05-21T00:47:45.967Z,97045.88
2023-05-21T00:50:15.188Z,97044.06
2023-05-21T00:52:44.188Z,97037.28
2023-05-21T00:55:11.209Z,97022.66
2023-05-21T00:57:39.791Z,97032.66
2023-05-21T01:00:09.141Z,97034.59
2023-05-21T01:02:37.696Z,97033.50
2023-05-21T01:05:06.212Z,97020.78
2023-05-21T01:07:35.124Z,97014.38
2023-05-21T01:10:07.877Z,96995.81
2023-05-21T01:12:35.750Z,96986.63
2023-05-21T01:15:04.301Z,96984.03
2023-05-21T01:17:32.189Z,96990.44
2023-05-21T01:19:59.640Z,97002.06
2023-05-21T01:22:28.671Z,96991.09
2023-05-21T01:24:55.776Z,96972.38
2023-05-21T01:27:23.065Z,96985.56
2023-05-21T01:29:50.480Z,96983.25
2023-05-21T01:32:27.957Z,96982.94
2023-05-21T01:35:21.157Z,96977.59
2023-05-21T01:38:14.050Z,96979.38
2023-05-21T01:40:54.448Z,96967.09
2023-05-21T01:43:22.927Z,96977.22
2023-05-21T01:45:53.696Z,96979.44
2023-05-21T01:48:21.154Z,96964.47
2023-05-21T01:50:48.282Z,96968.25
2023-05-21T01:53:15.941Z,96961.94
2023-05-21T01:55:42.854Z,96954.44
2023-05-21T01:58:10.160Z,96948.03
2023-05-21T02:00:37.592Z,96942.72
2023-05-21T02:03:04.494Z,96936.91
2023-05-21T02:05:31.509Z,96940.88
2023-05-21T02:08:00.273Z,96942.31
2023-05-21T02:10:27.308Z,96940.78
2023-05-21T02:12:54.225Z,96944.16
2023-05-21T02:15:21.317Z,96922.75
2023-05-21T02:17:48.118Z,96931.00
2023-05-21T02:20:15.033Z,96941.09
2023-05-21T02:22:44.153Z,96936.91
2023-05-21T02:25:12.202Z,96927.44
2023-05-21T02:27:40.902Z,96921.50
2023-05-21T02:30:09.652Z,96924.69
2023-05-21T02:32:36.824Z,96925.00
2023-05-21T02:35:04.618Z,96926.53
2023-05-21T02:37:35.368Z,96925.78
2023-05-21T02:40:04.555Z,96924.78
2023-05-21T02:42:31.787Z,96925.28
2023-05-21T02:44:58.740Z,96922.47
2023-05-21T02:47:25.906Z,96921.72
2023-05-21T02:49:54.919Z,96908.16
2023-05-21T02:52:24.277Z,96911.47
2023-05-21T02:54:52.254Z,96915.53
2023-05-21T02:57:19.455Z,96922.91
2023-05-21T02:59:46.342Z,96930.75
2023-05-21T03:02:13.248Z,96930.41
2023-05-21T03:04:46.662Z,96927.38
2023-05-21T03:07:14.960Z,96916.50
2023-05-21T03:09:42.605Z,96900.06
2023-05-21T03:12:09.821Z,96899.72
2023-05-21T03:14:36.699Z,96888.34
2023-05-21T03:17:06.617Z,96871.84
2023-05-21T03:19:37.544Z,96875.88
2023-05-21T03:22:05.278Z,96877.50
2023-05-21T03:24:35.443Z,96872.16
2023-05-21T03:27:03.196Z,96861.41
2023-05-21T03:29:29.935Z,96851.88
2023-05-21T03:31:57.358Z,96859.78
2023-05-21T03:34:24.512Z,96851.03
2023-05-21T03:36:52.400Z,96827.69
2023-05-21T03:39:21.113Z,96824.75
2023-05-21T03:41:48.658Z,96829.13
2023-05-21T03:44:32.619Z,96831.22
2023-05-21T03:47:22.894Z,96830.16
2023-05-21T03:49:50.800Z,96824.06
2023-05-21T03:52:17.502Z,96825.94
2023-05-21T03:54:44.306Z,96823.91
2023-05-21T03:57:11.298Z,96833.94
2023-05-21T03:59:38.278Z,96824.94
2023-05-21T04:02:05.459Z,96829.41
2023-05-21T04:04:34.074Z,96841.38
2023-05-21T04:07:01.180Z,96850.09
2023-05-21T04:09:28.198Z,96834.78
2023-05-21T04:11:55.277Z,96845.88
2023-05-21T04:14:23.611Z,96840.84
2023-05-21T04:16:52.115Z,96839.56
2023-05-21T04:19:20.537Z,96841.78
2023-05-21T04:21:47.781Z,96856.78
2023-05-21T04:24:14.923Z,96868.31
2023-05-21T04:27:01.756Z,96862.25
2023-05-21T04:29:31.518Z,96864.25
2023-05-21T04:31:58.279Z,96854.47
2023-05-21T04:34:25.278Z,96849.09
2023-05-21T04:36:52.244Z,96860.13
2023-05-21T04:39:19.080Z,96867.31
2023-05-21T04:41:45.816Z,96869.66
2023-05-21T04:44:15.304Z,96879.19
2023-05-21T04:46:46.291Z,96889.34
2023-05-21T04:49:13.249Z,96878.28
2023-05-21T04:51:40.200Z,96871.41
2023-05-21T04:54:07.092Z,96880.34
2023-05-21T04:56:34.773Z,96872.00
2023-05-21T04:59:05.157Z,96869.91
2023-05-21T05:01:35.501Z,96870.03
2023-05-21T05:04:02.416Z,96874.97
2023-05-21T05:06:29.666Z,96883.66
2023-05-21T05:08:56.511Z,96892.84
2023-05-21T05:11:23.576Z,96894.63
2023-05-21T05:13:52.885Z,96894.69
2023-05-21T05:16:25.494Z,96886.00
2023-05-21T05:18:53.339Z,96879.78
2023-05-21T05:21:22.985Z,96888.13
2023-05-21T05:23:50.338Z,96898.72
2023-05-21T05:26:17.643Z,96911.47
2023-05-21T05:28:46.076Z,96920.56
2023-05-21T05:31:12.980Z,96924.59
2023-05-21T05:33:41.207Z,96930.84
2023-05-21T05:36:08.158Z,96936.16
2023-05-21T05:38:36.273Z,96936.09
2023-05-21T05:41:03.323Z,96939.25
2023-05-21T05:43:30.122Z,96944.94
2023-05-21T05:45:58.662Z,96952.84
2023-05-21T05:48:25.494Z,96949.25
2023-05-21T05:50:54.810Z,96955.78
2023-05-21T05:53:24.089Z,96973.66
2023-05-21T05:55:50.876Z,96980.13
2023-05-21T05:58:17.807Z,96996.00
2023-05-21T06:00:55.764Z,97021.69
2023-05-21T06:03:23.964Z,97017.63
2023-05-21T06:05:53.002Z,97027.34
2023-05-21T06:08:19.833Z,97030.59
2023-05-21T06:10:46.538Z,97046.84
2023-05-21T06:13:14.768Z,97081.44
2023-05-21T06:15:43.540Z,97085.16
2023-05-21T06:18:11.601Z,97078.66
2023-05-21T06:20:38.531Z,97110.66
2023-05-21T06:23:06.662Z,97130.44
2023-05-21T06:25:33.438Z,97143.31
2023-05-21T06:28:00.347Z,97152.44
2023-05-21T06:30:28.997Z,97158.91
2023-05-21T06:32:55.846Z,97172.97
2023-05-21T06:35:22.717Z,97178.31
2023-05-21T06:37:49.522Z,97171.16
2023-05-21T06:40:16.633Z,97179.47
2023-05-21T06:42:43.699Z,97209.34
2023-05-21T06:45:36.233Z,97249.97
2023-05-21T06:48:16.092Z,97253.88
2023-05-21T06:50:44.032Z,97281.34
2023-05-21T06:53:10.876Z,97274.22
2023-05-21T06:55:37.930Z,97287.81
2023-05-21T06:58:43.657Z,97292.31
2023-05-21T07:01:11.897Z,97309.97
2023-05-21T07:03:38.732Z,97313.44
2023-05-21T07:06:05.702Z,97321.97
2023-05-21T07:08:32.622Z,97340.59
2023-05-21T07:10:59.841Z,97349.72
2023-05-21T07:13:26.690Z,97356.22
2023-05-21T07:15:53.511Z,97351.09
2023-05-21T07:18:20.690Z,97349.41
2023-05-21T07:20:47.440Z,97368.59
2023-05-21T07:23:16.368Z,97367.38
2023-05-21T07:25:44.222Z,97366.66
2023-05-21T07:28:13.097Z,97398.78
2023-05-21T07:30:40.132Z,97392.09
2023-05-21T07:33:12.866Z,97388.59
2023-05-21T07:35:40.036Z,97403.03
2023-05-21T07:38:07.968Z,97406.13
2023-05-21T07:40:34.908Z,97404.59
2023-05-21T07:43:02.926Z,97411.56
2023-05-21T07:45:30.959Z,97392.72
2023-05-21T07:47:58.048Z,97413.34
2023-05-21T07:50:25.981Z,97435.16
2023-05-21T07:52:53.124Z,97438.09
2023-05-21T07:55:20.792Z,97445.50
2023-05-21T07:57:48.158Z,97459.47
2023-05-21T08:00:17.406Z,97475.94
2023-05-21T08:02:50.129Z,97480.25
2023-05-21T08:05:16.966Z,97483.78
2023-05-21T08:07:44.473Z,97483.69
2023-05-21T08:10:11.524Z,97522.75
2023-05-21T08:12:38.362Z,97541.25
2023-05-21T08:15:07.031Z,97541.00
2023-05-21T08:17:37.837Z,97554.09
2023-05-21T08:20:04.993Z,97546.66
2023-05-21T08:22:32.551Z,97606.66
2023-05-21T08:24:59.929Z,97620.78
2023-05-21T08:27:26.712Z,97618.03
2023-05-21T08:29:53.433Z,97605.03
2023-05-21T08:32:20.857Z,97632.81
2023-05-21T08:34:48.008Z,97599.56
2023-05-21T08:37:33.906Z,97641.97
2023-05-21T08:40:13.483Z,97632.56
2023-05-21T08:42:48.343Z,97598.69
2023-05-21T08:45:23.836Z,97627.91
2023-05-21T08:47:58.705Z,97622.97
2023-05-21T08:50:28.989Z,97647.53
2023-05-21T08:53:04.001Z,97676.28
2023-05-21T08:55:39.094Z,97719.03
2023-05-21T08:58:06.346Z,97722.72
2023-05-21T09:00:33.085Z,97684.22
2023-05-21T09:03:02.984Z,97760.13
2023-05-21T09:05:31.387Z,97738.91
2023-05-21T09:08:13.923Z,97763.28
2023-05-21T09:11:03.657Z,97655.66
2023-05-21T09:13:39.084Z,97659.69
2023-05-21T09:16:12.477Z,97724.84
2023-05-21T09:18:39.496Z,97808.16
2023-05-21T09:21:30.061Z,97828.22
2023-05-21T09:24:00.924Z,97808.41
2023-05-21T09:26:28.078Z,97835.44
2023-05-21T09:29:00.331Z,97783.38
2023-05-21T09:31:27.643Z,97766.34
2023-05-21T09:33:55.842Z,97809.88
2023-05-21T09:36:25.311Z,97840.84
2023-05-21T09:38:52.493Z,97862.09
2023-05-21T09:41:22.235Z,97853.47
2023-05-21T09:43:49.733Z,97846.91
2023-05-21T09:46:22.197Z,97839.19
2023-05-21T09:48:49.059Z,97863.41
2023-05-21T09:51:20.557Z,97868.31
2023-05-21T09:53:54.844Z,97875.09
2023-05-21T09:56:26.668Z,97834.38
2023-05-21T09:59:04.665Z,97836.59
2023-05-21T10:01:36.954Z,97811.59
2023-05-21T10:04:08.113Z,97812.84
2023-05-21T10:06:38.517Z,97776.03
2023-05-21T10:09:10.765Z,97795.84
2023-05-21T10:11:37.980Z,97833.38
2023-05-21T10:14:13.768Z,97838.00
2023-05-21T10:16:41.429Z,97816.84
2023-05-21T10:19:11.258Z,97819.00
2023-05-21T10:21:40.085Z,97805.38
2023-05-21T10:24:11.031Z,97813.50
2023-05-21T10:26:38.764Z,97846.91
2023-05-21T10:29:05.640Z,97836.91
2023-05-21T10:31:33.458Z,97865.28
2023-05-21T10:34:00.998Z,97864.31
2023-05-21T10:36:31.193Z,97850.03
2023-05-21T10:39:00.318Z,97848.44
2023-05-21T10:41:30.492Z,97823.88
2023-05-21T10:44:04.984Z,97850.06
2023-05-21T10:46:59.511Z,97858.50
2023-05-21T10:50:08.292Z,97843.63
2023-05-21T10:52:57.355Z,97835.00
2023-05-21T10:55:47.333Z,97835.78
2023-05-21T10:58:27.394Z,97825.06
2023-05-21T11:00:56.124Z,97828.59
2023-05-21T11:03:23.249Z,97825.09
2023-05-21T11:05:55.614Z,97816.63
2023-05-21T11:08:36.065Z,97825.19
2023-05-21T11:11:03.956Z,97833.44
2023-05-21T11:13:49.352Z,97840.44
2023-05-21T11:16:17.348Z,97846.56
2023-05-21T11:18:47.296Z,97830.50
2023-05-21T11:21:18.690Z,97799.13
2023-05-21T11:23:51.687Z,97808.00
2023-05-21T11:26:25.318Z,97805.56
2023-05-21T11:29:07.028Z,97822.75
2023-05-21T11:31:38.732Z,97788.00
2023-05-21T11:34:28.342Z,97793.78
2023-05-21T11:37:33.354Z,97785.47
2023-05-21T11:40:20.054Z,97778.44
2023-05-21T11:42:52.990Z,97781.91
2023-05-21T11:45:21.534Z,97797.56
2023-05-21T11:47:49.983Z,97797.28
2023-05-21T11:50:17.930Z,97790.88
2023-05-21T11:52:45.667Z,97815.34
2023-05-21T11:55:13.602Z,97803.50
2023-05-21T11:57:43.121Z,97811.31
2023-05-21T12:00:15.654Z,97829.06
2023-05-21T12:02:48.704Z,97836.28
2023-05-21T12:05:15.896Z,97798.91
2023-05-21T12:07:43.068Z,97808.53
2023-05-21T12:10:10.552Z,97821.09
2023-05-21T12:12:50.547Z,97785.53
2023-05-21T12:15:20.813Z,97800.19
2023-05-21T12:17:50.225Z,97796.59
2023-05-21T12:20:17.341Z,97819.72
2023-05-21T12:22:45.272Z,97799.13
2023-05-21T12:25:12.455Z,97811.09
2023-05-21T12:27:39.890Z,97813.31
2023-05-21T12:30:07.333Z,97809.00
2023-05-21T12:32:34.244Z,97809.00
2023-05-21T12:35:01.314Z,97787.44
2023-05-21T12:37:35.733Z,97809.34
2023-05-21T12:40:11.996Z,97800.31
2023-05-21T12:42:40.345Z,97812.50
2023-05-21T12:45:09.222Z,97801.13
2023-05-21T12:47:36.584Z,97790.59
2023-05-21T12:50:12.449Z,97801.56
2023-05-21T12:52:40.629Z,97823.06
2023-05-21T12:55:09.607Z,97802.75
2023-05-21T12:57:39.216Z,97812.97
2023-05-21T13:00:07.974Z,97815.66
2023-05-21T13:02:39.387Z,97791.13
2023-05-21T13:05:08.490Z,97794.84
2023-05-21T13:07:37.024Z,97794.19
2023-05-21T13:10:04.738Z,97786.13
2023-05-21T13:12:33.138Z,97807.09
2023-05-21T13:15:01.586Z,97809.34
2023-05-21T13:17:29.235Z,97784.00
2023-05-21T13:20:13.398Z,97793.50
2023-05-21T13:22:47.102Z,97773.28
2023-05-21T13:25:16.962Z,97784.00
2023-05-21T13:27:44.259Z,97791.81
2023-05-21T13:30:14.453Z,97771.91
2023-05-21T13:32:42.458Z,97777.31
2023-05-21T13:35:10.274Z,97788.25
2023-05-21T13:37:37.441Z,97795.69
2023-05-21T13:40:11.263Z,97771.59
2023-05-21T13:42:41.658Z,97782.22
2023-05-21T13:45:11.150Z,97787.56
2023-05-21T13:47:40.204Z,97764.28
2023-05-21T13:50:08.623Z,97763.31
2023-05-21T13:52:36.011Z,97780.25
2023-05-21T13:55:02.921Z,97768.31
2023-05-21T13:57:31.150Z,97756.91
2023-05-21T13:59:59.385Z,97767.47
2023-05-21T14:02:26.610Z,97752.72
2023-05-21T14:04:54.071Z,97775.16
2023-05-21T14:07:21.629Z,97763.19
2023-05-21T14:09:48.667Z,97773.66
2023-05-21T14:12:15.880Z,97774.22
2023-05-21T14:14:42.703Z,97785.22
2023-05-21T14:17:09.467Z,97764.88
2023-05-21T14:19:36.367Z,97763.50
2023-05-21T14:22:03.130Z,97779.69
2023-05-21T14:24:29.943Z,97769.59
2023-05-21T14:26:56.714Z,97766.84
2023-05-21T14:29:23.499Z,97778.25
2023-05-21T14:31:50.501Z,97785.50
2023-05-21T14:34:17.501Z,97777.38
2023-05-21T14:36:44.227Z,97769.53
2023-05-21T14:39:10.986Z,97773.13
2023-05-21T14:41:39.910Z,97779.94
2023-05-21T14:44:07.003Z,97767.28
2023-05-21T14:46:34.039Z,97770.34
2023-05-21T14:49:01.162Z,97758.03
2023-05-21T14:51:28.155Z,97744.22
2023-05-21T14:53:55.914Z,97749.06
2023-05-21T14:56:25.295Z,97754.22
2023-05-21T14:58:52.427Z,97747.22
2023-05-21T15:01:19.191Z,97734.59
2023-05-21T15:03:46.294Z,97742.25
2023-05-21T15:06:13.647Z,97736.06
2023-05-21T15:08:40.440Z,97723.66
2023-05-21T15:11:10.124Z,97741.19
2023-05-21T15:13:37.137Z,97743.59
2023-05-21T15:16:04.359Z,97711.78
2023-05-21T15:18:31.264Z,97713.06
2023-05-21T15:20:58.734Z,97712.59
2023-05-21T15:23:25.766Z,97727.94
2023-05-21T15:25:52.581Z,97742.28
2023-05-21T15:28:19.997Z,97745.88
2023-05-21T15:30:46.810Z,97731.97
2023-05-21T15:33:13.989Z,97728.31
2023-05-21T15:35:41.593Z,97736.75
2023-05-21T15:38:08.575Z,97724.44
2023-05-21T15:40:35.559Z,97717.16
2023-05-21T15:43:02.380Z,97750.69
2023-05-21T15:45:29.087Z,97724.34
2023-05-21T15:47:56.166Z,97724.13
2023-05-21T15:50:23.041Z,97719.31
2023-05-21T15:52:51.666Z,97730.19
2023-05-21T15:55:20.665Z,97712.41
2023-05-21T15:57:47.430Z,97703.59
2023-05-21T16:00:14.633Z,97740.56
2023-05-21T16:02:42.247Z,97710.91
2023-05-21T16:05:09.494Z,97704.19
2023-05-21T16:07:37.924Z,97715.88
2023-05-21T16:10:09.850Z,97695.88
2023-05-21T16:12:36.808Z,97701.28
2023-05-21T16:15:03.762Z,97707.13
2023-05-21T16:17:30.573Z,97721.03
2023-05-21T16:19:57.480Z,97711.22
2023-05-21T16:22:24.884Z,97723.94
2023-05-21T16:24:51.784Z,97696.09
2023-05-21T16:27:18.454Z,97713.88
2023-05-21T16:29:45.388Z,97708.03
2023-05-21T16:32:14.297Z,97708.53
2023-05-21T16:34:41.345Z,97696.13
2023-05-21T16:37:09.994Z,97687.00
2023-05-21T16:39:37.217Z,97686.00
2023-05-21T16:42:04.319Z,97730.72
2023-05-21T16:44:32.220Z,97724.84
2023-05-21T16:46:59.820Z,97707.06
2023-05-21T16:49:27.446Z,97698.09
2023-05-21T16:51:54.250Z,97722.78
2023-05-21T16:54:21.225Z,97715.78
2023-05-21T16:56:48.010Z,97713.59
2023-05-21T16:59:14.856Z,97722.50
2023-05-21T17:01:42.987Z,97703.19
2023-05-21T17:04:09.923Z,97716.94
2023-05-21T17:06:36.696Z,97701.53
2023-05-21T17:09:03.969Z,97722.53
2023-05-21T17:11:31.009Z,97722.66
2023-05-21T17:13:57.849Z,97707.00
2023-05-21T17:16:25.156Z,97690.81
2023-05-21T17:18:52.237Z,97719.78
2023-05-21T17:21:19.709Z,97714.16
2023-05-21T17:23:46.698Z,97720.78
2023-05-21T17:26:14.079Z,97701.53
2023-05-21T17:28:40.921Z,97690.63
2023-05-21T17:31:09.084Z,97683.81
2023-05-21T17:33:37.452Z,97699.41
2023-05-21T17:36:04.410Z,97692.22
2023-05-21T17:38:31.232Z,97676.88
2023-05-21T17:40:59.135Z,97678.50
2023-05-21T17:43:28.830Z,97676.56
2023-05-21T17:45:55.774Z,97674.28
2023-05-21T17:48:22.613Z,97652.31
2023-05-21T17:50:49.477Z,97665.03
2023-05-21T17:53:16.692Z,97662.34
2023-05-21T17:55:43.670Z,97656.13
2023-05-21T17:58:10.582Z,97643.41
2023-05-21T18:00:37.407Z,97621.50
2023-05-21T18:03:04.654Z,97641.97
2023-05-21T18:05:31.707Z,97624.28
2023-05-21T18:08:00.054Z,97620.59
2023-05-21T18:10:27.072Z,97624.94
2023-05-21T18:12:53.845Z,97631.38
2023-05-21T18:15:20.750Z,97613.31
2023-05-21T18:17:47.973Z,97597.09
2023-05-21T18:20:15.188Z,97600.88
2023-05-21T18:22:42.014Z,97583.47
2023-05-21T18:25:09.465Z,97572.66
2023-05-21T18:27:36.377Z,97575.31
2023-05-21T18:30:06.455Z,97572.34
2023-05-21T18:32:33.932Z,97582.97
2023-05-21T18:35:00.910Z,97593.50
2023-05-21T18:37:27.758Z,97592.41
2023-05-21T18:39:54.481Z,97613.56
2023-05-21T18:42:21.211Z,97618.16
2023-05-21T18:44:51.136Z,97612.47
2023-05-21T18:47:18.075Z,97616.63
2023-05-21T18:49:44.844Z,97613.63
2023-05-21T18:52:11.615Z,97600.00
2023-05-21T18:54:38.563Z,97598.88
2023-05-21T18:57:05.511Z,97587.94
2023-05-21T18:59:32.308Z,97580.03
2023-05-21T19:01:59.103Z,97581.19
2023-05-21T19:04:26.040Z,97564.97
2023-05-21T19:06:52.773Z,97563.06
2023-05-21T19:09:19.439Z,97555.16
2023-05-21T19:11:46.257Z,97556.66
2023-05-21T19:14:13.041Z,97558.22
2023-05-21T19:16:40.008Z,97545.78
2023-05-21T19:19:06.895Z,97531.78
2023-05-21T19:21:33.965Z,97526.53
2023-05-21T19:24:01.058Z,97506.50
2023-05-21T19:26:28.205Z,97491.75
2023-05-21T19:28:55.662Z,97477.75
2023-05-21T19:31:23.346Z,97453.59
2023-05-21T19:33:50.849Z,97434.31
2023-05-21T19:36:18.653Z,97421.09
2023-05-21T19:38:47.013Z,97415.03
2023-05-21T19:41:17.815Z,97402.94
2023-05-21T19:43:45.513Z,97391.63
2023-05-21T19:46:12.706Z,97383.28
2023-05-21T19:48:39.673Z,97361.03
2023-05-21T19:51:06.557Z,97359.47
2023-05-21T19:53:33.411Z,97350.44
2023-05-21T19:56:00.344Z,97336.81
2023-05-21T19:58:29.683Z,97334.56
2023-05-21T20:00:58.577Z,97328.50
2023-05-21T20:03:26.710Z,97305.50
2023-05-21T20:05:53.810Z,97307.00
2023-05-21T20:08:20.718Z,97302.84
2023-05-21T20:10:50.333Z,97299.06
2023-05-21T20:13:18.382Z,97289.63
2023-05-21T20:15:45.092Z,97270.41
2023-05-21T20:18:13.107Z,97251.88
2023-05-21T20:20:41.586Z,97242.41
2023-05-21T20:23:08.813Z,97227.72
2023-05-21T20:25:35.638Z,97224.31
2023-05-21T20:28:03.620Z,97217.53
2023-05-21T20:30:35.085Z,97206.56
2023-05-21T20:33:03.192Z,97197.91
2023-05-21T20:35:30.591Z,97184.31
2023-05-21T20:37:57.377Z,97176.03
2023-05-21T20:40:24.149Z,97160.16
2023-05-21T20:42:53.181Z,97165.09
2023-05-21T20:45:21.179Z,97139.41
2023-05-21T20:47:50.194Z,97133.78
2023-05-21T20:50:18.022Z,97114.94
2023-05-21T20:52:47.020Z,97106.63
2023-05-21T20:55:14.913Z,97096.84
2023-05-21T20:57:42.312Z,97085.09
2023-05-21T21:00:12.019Z,97085.88
2023-05-21T21:02:39.071Z,97070.44
2023-05-21T21:05:06.454Z,97050.03
2023-05-21T21:07:34.445Z,97042.16
2023-05-21T21:10:01.646Z,97038.00
2023-05-21T21:12:28.724Z,97027.06
2023-05-21T21:14:56.051Z,97019.91
2023-05-21T21:17:23.207Z,97017.69
2023-05-21T21:19:50.196Z,97004.44
2023-05-21T21:22:18.494Z,97005.59
2023-05-21T21:24:45.883Z,96978.47
2023-05-21T21:27:12.737Z,96978.06
2023-05-21T21:29:39.470Z,96963.03
2023-05-21T21:32:06.634Z,96958.50
2023-05-21T21:34:33.403Z,96960.38
2023-05-21T21:37:00.207Z,96946.81
2023-05-21T21:39:27.114Z,96928.38
2023-05-21T21:41:53.902Z,96924.22
2023-05-21T21:44:20.793Z,96902.78
2023-05-21T21:46:47.600Z,96897.13
2023-05-21T21:49:17.439Z,96904.28
2023-05-21T21:51:44.914Z,96906.91
2023-05-21T21:54:11.916Z,96885.47
2023-05-21T21:56:38.703Z,96870.78
2023-05-21T21:59:05.493Z,96874.16
2023-05-21T22:01:32.440Z,96865.50
2023-05-21T22:03:59.400Z,96855.34
2023-05-21T22:06:27.814Z,96862.47
2023-05-21T22:08:55.193Z,96852.69
2023-05-21T22:11:22.140Z,96849.28
2023-05-21T22:13:49.188Z,96833.50
2023-05-21T22:16:16.071Z,96816.94
2023-05-21T22:18:42.963Z,96825.25
2023-05-21T22:21:10.821Z,96823.34
2023-05-21T22:23:38.682Z,96821.06
2023-05-21T22:26:06.155Z,96806.78
2023-05-21T22:28:33.109Z,96795.84
2023-05-21T22:30:59.839Z,96788.34
2023-05-21T22:33:27.017Z,96795.09
2023-05-21T22:35:54.639Z,96780.06
2023-05-21T22:38:21.678Z,96786.06
2023-05-21T22:40:48.420Z,96770.28
2023-05-21T22:43:15.235Z,96774.00
2023-05-21T22:45:42.381Z,96767.63
2023-05-21T22:48:09.717Z,96770.97
2023-05-21T22:50:38.715Z,96771.00
2023-05-21T22:53:06.435Z,96773.59
2023-05-21T22:55:33.246Z,96759.69
2023-05-21T22:58:00.058Z,96755.19
2023-05-21T23:00:26.928Z,96744.28
2023-05-21T23:02:54.826Z,96731.16
2023-05-21T23:05:22.529Z,96728.13
2023-05-21T23:07:49.760Z,96727.72
2023-05-21T23:10:16.523Z,96688.22
2023-05-21T23:12:43.369Z,96685.94
2023-05-21T23:15:11.038Z,96666.41
2023-05-21T23:17:38.314Z,96673.91
2023-05-21T23:20:07.512Z,96685.53
2023-05-21T23:22:35.675Z,96705.09
2023-05-21T23:25:02.757Z,96694.59
2023-05-21T23:27:29.791Z,96689.69
2023-05-21T23:29:56.717Z,96688.56
2023-05-21T23:32:23.807Z,96680.31
2023-05-21T23:34:50.866Z,96685.56
2023-05-21T23:37:17.910Z,96701.66
2023-05-21T23:39:48.350Z,96704.25
2023-05-21T23:42:18.789Z,96703.88
2023-05-21T23:44:45.817Z,96704.28
2023-05-21T23:47:12.503Z,96692.66
2023-05-21T23:49:39.544Z,96676.50
2023-05-21T23:52:06.925Z,96664.47
2023-05-21T23:54:33.835Z,96649.06
2023-05-21T23:57:01.074Z,96634.44
2023-05-21T23:59:27.833Z,96637.06
